Time;durP1;ratioP1;P1;durP2;ratioP2;P2;SDS_P1;SDS_P2;PMS_P1;PMS_P2;Temp;Humidity;BMP_temperature;BMP_pressure;BME280_temperature;BME280_humidity;BME280_pressure;Samples;Min_cycle;Max_cycle;Signal;HPM_P1;HPM_P2
2023/08/26 00:01:39;;;;;;;19.13;9.37;;;;;;;;;;5007666;28;20018;-72
2023/08/26 00:04:04;;;;;;;19.42;8.25;;;;;;;;;;5009029;28;20030;-72
2023/08/26 00:06:29;;;;;;;16.17;8.70;;;;;;;;;;5010586;28;20387;-72
2023/08/26 00:08:55;;;;;;;16.13;8.30;;;;;;;;;;5009418;28;20449;-72
2023/08/26 00:11:20;;;;;;;17.63;8.43;;;;;;;;;;5006504;28;20010;-72
2023/08/26 00:13:45;;;;;;;13.67;8.50;;;;;;;;;;5005301;28;20064;-72
2023/08/26 00:16:12;;;;;;;17.27;8.77;;;;;;;;;;5001045;28;20610;-72
2023/08/26 00:18:37;;;;;;;14.90;8.52;;;;;;;;;;5007967;28;20022;-72
2023/08/26 00:21:03;;;;;;;19.83;9.40;;;;;;;;;;5002852;28;20519;-72
2023/08/26 00:23:28;;;;;;;23.52;9.52;;;;;;;;;;5006774;28;20028;-72
2023/08/26 00:25:54;;;;;;;19.85;10.63;;;;;;;;;;5009618;28;20014;-72
2023/08/26 00:28:19;;;;;;;26.88;12.02;;;;;;;;;;5008708;28;20109;-72
2023/08/26 00:30:44;;;;;;;25.27;10.93;;;;;;;;;;5005032;28;20399;-72
2023/08/26 00:33:09;;;;;;;17.93;9.53;;;;;;;;;;4991708;28;20026;-72
2023/08/26 00:35:36;;;;;;;22.63;12.50;;;;;;;;;;5008686;28;20275;-72
2023/08/26 00:38:02;;;;;;;24.05;13.50;;;;;;;;;;5002267;28;20027;-72
2023/08/26 00:40:27;;;;;;;30.17;14.03;;;;;;;;;;4999608;28;20589;-72
2023/08/26 00:42:53;;;;;;;29.20;13.50;;;;;;;;;;5001969;28;20682;-72
2023/08/26 00:45:18;;;;;;;22.52;10.88;;;;;;;;;;5009399;28;20033;-72
2023/08/26 00:47:43;;;;;;;22.60;10.17;;;;;;;;;;5008457;28;20034;-72
2023/08/26 00:50:09;;;;;;;24.83;10.37;;;;;;;;;;5007639;28;20061;-72
2023/08/26 00:52:34;;;;;;;22.33;10.90;;;;;;;;;;5007053;28;20257;-72
2023/08/26 00:54:59;;;;;;;21.37;10.43;;;;;;;;;;5010002;28;20410;-72
2023/08/26 00:57:24;;;;;;;18.30;10.70;;;;;;;;;;5006372;28;20264;-72
2023/08/26 00:59:50;;;;;;;21.65;11.00;;;;;;;;;;5005827;28;20101;-72
2023/08/26 01:02:15;;;;;;;29.87;11.67;;;;;;;;;;5005660;28;20018;-72
2023/08/26 01:04:40;;;;;;;14.50;9.38;;;;;;;;;;5005869;28;20749;-72
2023/08/26 01:07:05;;;;;;;24.05;10.50;;;;;;;;;;5006819;28;20395;-72
2023/08/26 01:09:31;;;;;;;20.25;9.57;;;;;;;;;;5004079;28;20068;-72
2023/08/26 01:12:01;;;;;;;22.05;10.55;;;;;;;;;;4997870;28;20428;-72
2023/08/26 01:14:42;;;;;;;28.85;11.05;;;;;;;;;;4998155;28;20013;-72
2023/08/26 01:17:08;;;;;;;20.05;10.07;;;;;;;;;;5003157;28;20046;-72
2023/08/26 01:19:36;;;;;;;22.40;10.55;;;;;;;;;;4991636;28;20017;-72
2023/08/26 01:22:04;;;;;;;20.67;8.65;;;;;;;;;;4989877;28;20379;-72
2023/08/26 01:24:30;;;;;;;13.63;7.13;;;;;;;;;;5005748;28;20475;-72
2023/08/26 01:26:55;;;;;;;11.68;6.60;;;;;;;;;;5005472;28;20050;-72
2023/08/26 01:29:20;;;;;;;13.13;6.80;;;;;;;;;;5008687;28;20053;-72
2023/08/26 01:31:50;;;;;;;14.03;6.00;;;;;;;;;;5009623;28;20272;-72
2023/08/26 01:34:19;;;;;;;14.00;7.18;;;;;;;;;;5011814;28;20562;-72
2023/08/26 01:36:44;;;;;;;16.35;7.70;;;;;;;;;;5012963;28;20037;-72
2023/08/26 01:39:13;;;;;;;15.32;7.40;;;;;;;;;;5004531;28;20034;-72
2023/08/26 01:41:42;;;;;;;20.33;7.70;;;;;;;;;;5008610;28;20387;-72
2023/08/26 01:44:08;;;;;;;19.73;7.78;;;;;;;;;;5007249;28;20029;-72
2023/08/26 01:46:36;;;;;;;18.10;7.72;;;;;;;;;;5012640;28;20022;-72
2023/08/26 01:49:02;;;;;;;25.35;9.75;;;;;;;;;;5012048;28;20017;-72
2023/08/26 01:51:27;;;;;;;15.63;8.02;;;;;;;;;;5003061;28;20018;-72
2023/08/26 01:53:52;;;;;;;26.38;8.10;;;;;;;;;;5009697;28;20064;-72
2023/08/26 01:56:17;;;;;;;19.20;6.87;;;;;;;;;;5009721;28;20030;-72
2023/08/26 01:58:43;;;;;;;15.50;5.70;;;;;;;;;;5004574;28;20280;-72
2023/08/26 02:01:08;;;;;;;11.53;5.37;;;;;;;;;;5001308;28;20510;-72
2023/08/26 02:03:33;;;;;;;13.07;5.70;;;;;;;;;;5011145;28;20065;-72
2023/08/26 02:05:58;;;;;;;12.13;5.30;;;;;;;;;;5011948;28;20606;-72
2023/08/26 02:08:23;;;;;;;10.13;5.00;;;;;;;;;;5008408;28;20951;-72
2023/08/26 02:10:57;;;;;;;9.07;4.57;;;;;;;;;;5005745;28;20265;-72
2023/08/26 02:13:24;;;;;;;9.82;4.07;;;;;;;;;;5010171;28;20283;-72
2023/08/26 02:15:49;;;;;;;9.82;4.03;;;;;;;;;;5012749;28;20018;-72
2023/08/26 02:18:14;;;;;;;13.57;4.10;;;;;;;;;;5011897;28;20054;-72
2023/08/26 02:20:40;;;;;;;11.75;4.35;;;;;;;;;;5008494;28;20056;-72
2023/08/26 02:23:05;;;;;;;14.05;4.65;;;;;;;;;;5007468;28;20049;-73
2023/08/26 02:25:30;;;;;;;12.80;5.33;;;;;;;;;;5011159;28;20398;-72
2023/08/26 02:27:56;;;;;;;17.00;4.80;;;;;;;;;;5009404;28;20299;-72
2023/08/26 02:30:21;;;;;;;11.25;4.65;;;;;;;;;;5008656;28;20272;-74
2023/08/26 02:32:46;;;;;;;16.50;4.80;;;;;;;;;;5001981;28;20015;-74
2023/08/26 02:35:11;;;;;;;9.63;3.77;;;;;;;;;;5009068;28;20281;-73
2023/08/26 02:37:36;;;;;;;8.13;4.10;;;;;;;;;;5005975;28;20032;-73
2023/08/26 02:40:03;;;;;;;16.83;3.73;;;;;;;;;;5001922;28;20277;-72
2023/08/26 02:42:29;;;;;;;12.15;4.05;;;;;;;;;;5004102;28;20642;-73
2023/08/26 02:44:54;;;;;;;8.50;3.30;;;;;;;;;;5005562;28;20018;-73
2023/08/26 02:47:19;;;;;;;14.37;3.73;;;;;;;;;;5008562;28;20041;-72
2023/08/26 02:49:45;;;;;;;6.37;3.07;;;;;;;;;;5001883;28;20311;-73
2023/08/26 02:52:10;;;;;;;7.43;3.20;;;;;;;;;;5006520;28;20025;-73
2023/08/26 02:54:35;;;;;;;8.90;3.00;;;;;;;;;;5006616;28;20264;-73
2023/08/26 02:57:01;;;;;;;12.02;3.25;;;;;;;;;;5007594;28;20021;-72
2023/08/26 02:59:26;;;;;;;9.88;3.35;;;;;;;;;;5009796;28;20096;-73
2023/08/26 03:02:00;;;;;;;7.82;3.58;;;;;;;;;;5002743;28;20029;-72
2023/08/26 03:04:25;;;;;;;8.95;3.80;;;;;;;;;;5008691;28;20033;-73
2023/08/26 03:06:50;;;;;;;14.07;3.75;;;;;;;;;;5010893;28;20033;-73
2023/08/26 03:09:16;;;;;;;9.53;3.27;;;;;;;;;;5005414;28;20033;-72
2023/08/26 03:11:41;;;;;;;13.73;3.13;;;;;;;;;;5010636;28;20025;-73
2023/08/26 03:14:06;;;;;;;9.43;2.90;;;;;;;;;;5005333;28;20325;-73
2023/08/26 03:16:31;;;;;;;9.38;3.42;;;;;;;;;;5007380;28;20022;-72
2023/08/26 03:18:57;;;;;;;10.13;3.53;;;;;;;;;;5010290;28;20097;-72
2023/08/26 03:21:22;;;;;;;13.50;2.87;;;;;;;;;;5005965;28;20271;-72
2023/08/26 03:23:47;;;;;;;9.13;3.15;;;;;;;;;;5004377;28;20273;-72
2023/08/26 03:26:13;;;;;;;14.73;2.57;;;;;;;;;;5007498;28;20034;-72
2023/08/26 03:28:38;;;;;;;9.73;2.70;;;;;;;;;;5010676;28;20284;-72
2023/08/26 03:31:05;;;;;;;6.57;2.60;;;;;;;;;;5001517;28;20104;-72
2023/08/26 03:33:30;;;;;;;12.73;2.55;;;;;;;;;;5007166;28;20268;-72
2023/08/26 03:35:55;;;;;;;6.17;2.43;;;;;;;;;;5011200;28;20044;-72
2023/08/26 03:38:20;;;;;;;8.83;2.30;;;;;;;;;;5008161;28;20338;-72
2023/08/26 03:40:46;;;;;;;9.60;2.10;;;;;;;;;;5004536;28;20305;-72
2023/08/26 03:43:11;;;;;;;9.47;2.37;;;;;;;;;;5006717;28;20673;-72
2023/08/26 03:45:37;;;;;;;10.13;2.10;;;;;;;;;;5008005;28;20021;-72
2023/08/26 03:48:03;;;;;;;8.40;2.00;;;;;;;;;;5007368;28;20288;-72
2023/08/26 03:50:28;;;;;;;9.23;2.00;;;;;;;;;;5009502;28;20076;-72
2023/08/26 03:52:53;;;;;;;9.23;2.37;;;;;;;;;;5006115;28;20094;-72
2023/08/26 03:55:19;;;;;;;17.07;3.30;;;;;;;;;;5009826;28;20272;-72
2023/08/26 03:57:44;;;;;;;16.13;5.30;;;;;;;;;;5009740;28;20257;-72
2023/08/26 04:00:09;;;;;;;7.47;2.33;;;;;;;;;;5004821;28;20601;-72
2023/08/26 04:02:35;;;;;;;1809.97;876.47;;;;;;;;;;5002719;28;21494;-72
2023/08/26 04:05:00;;;;;;;398.63;133.30;;;;;;;;;;5009928;28;20021;-72
2023/08/26 04:07:25;;;;;;;6.77;1.83;;;;;;;;;;5007849;28;20112;-72
2023/08/26 04:09:50;;;;;;;7.50;2.07;;;;;;;;;;5001651;28;20335;-72
2023/08/26 04:12:15;;;;;;;5.47;1.50;;;;;;;;;;5003112;28;20267;-72
2023/08/26 04:14:40;;;;;;;6.73;2.33;;;;;;;;;;5007902;28;20268;-72
2023/08/26 04:17:06;;;;;;;5.87;2.03;;;;;;;;;;5006667;28;20745;-72
2023/08/26 04:19:32;;;;;;;5.30;2.00;;;;;;;;;;5006773;28;20364;-72
2023/08/26 04:21:58;;;;;;;5.22;1.83;;;;;;;;;;4999535;28;20104;-72
2023/08/26 04:24:24;;;;;;;4.75;1.60;;;;;;;;;;5000128;28;20037;-72
2023/08/26 04:26:49;;;;;;;3.92;1.38;;;;;;;;;;5010184;28;20022;-74
2023/08/26 04:29:14;;;;;;;13.10;1.70;;;;;;;;;;5006327;28;20631;-75
2023/08/26 04:31:39;;;;;;;4.63;1.70;;;;;;;;;;5005919;28;20260;-74
2023/08/26 04:34:05;;;;;;;4.57;1.77;;;;;;;;;;5005222;28;20339;-74
2023/08/26 04:36:30;;;;;;;10.07;1.67;;;;;;;;;;5006048;28;20284;-72
2023/08/26 04:38:56;;;;;;;5.73;1.30;;;;;;;;;;5005390;28;20475;-73
2023/08/26 04:41:22;;;;;;;14.43;1.85;;;;;;;;;;5005859;28;20277;-72
2023/08/26 04:43:48;;;;;;;2.83;1.42;;;;;;;;;;5009810;28;20018;-73
2023/08/26 04:46:13;;;;;;;6.65;1.20;;;;;;;;;;5009127;28;20022;-73
2023/08/26 04:48:39;;;;;;;10.77;1.80;;;;;;;;;;5004905;28;20541;-73
2023/08/26 04:51:05;;;;;;;5.47;1.42;;;;;;;;;;5001933;28;20472;-73
2023/08/26 04:53:31;;;;;;;8.10;1.55;;;;;;;;;;5006465;28;20025;-73
2023/08/26 04:55:56;;;;;;;7.18;1.33;;;;;;;;;;5005581;28;20022;-73
2023/08/26 04:58:21;;;;;;;9.33;3.47;;;;;;;;;;5002700;28;20615;-73
2023/08/26 05:00:47;;;;;;;5.70;1.43;;;;;;;;;;5005794;28;20257;-73
2023/08/26 05:03:12;;;;;;;3.78;1.30;;;;;;;;;;5010785;28;20623;-73
2023/08/26 05:05:41;;;;;;;9.13;1.17;;;;;;;;;;5013891;28;20076;-73
2023/08/26 05:08:06;;;;;;;4.25;1.00;;;;;;;;;;5013336;28;20281;-73
2023/08/26 05:10:32;;;;;;;5.40;1.38;;;;;;;;;;5013493;28;20148;-73
2023/08/26 05:12:57;;;;;;;6.78;1.10;;;;;;;;;;4989222;28;20022;-73
2023/08/26 05:15:23;;;;;;;5.17;1.00;;;;;;;;;;5009386;28;20094;-72
2023/08/26 05:17:48;;;;;;;4.10;1.35;;;;;;;;;;4992880;28;20249;-72
2023/08/26 05:20:13;;;;;;;9.93;1.20;;;;;;;;;;5013721;28;20025;-72
2023/08/26 05:22:40;;;;;;;5.15;1.55;;;;;;;;;;5011804;28;20265;-72
2023/08/26 05:25:05;;;;;;;8.90;1.50;;;;;;;;;;5012723;28;20485;-73
2023/08/26 05:27:30;;;;;;;8.77;1.20;;;;;;;;;;5008755;28;20040;-72
2023/08/26 05:29:56;;;;;;;2.40;1.40;;;;;;;;;;5012483;28;20069;-73
2023/08/26 05:32:21;;;;;;;2.83;1.40;;;;;;;;;;5010209;28;20108;-72
2023/08/26 05:34:46;;;;;;;5.43;1.50;;;;;;;;;;5002911;28;20758;-73
2023/08/26 05:37:11;;;;;;;4.82;1.67;;;;;;;;;;5000738;28;20274;-73
2023/08/26 05:39:36;;;;;;;3.47;1.45;;;;;;;;;;5005777;28;20022;-72
2023/08/26 05:42:02;;;;;;;12.65;1.38;;;;;;;;;;5001695;28;20077;-72
2023/08/26 05:44:27;;;;;;;7.72;2.25;;;;;;;;;;5004648;28;20022;-72
2023/08/26 05:46:54;;;;;;;3.25;0.82;;;;;;;;;;5001865;28;20522;-72
2023/08/26 05:49:19;;;;;;;9.20;1.48;;;;;;;;;;5007298;28;20068;-72
2023/08/26 05:51:44;;;;;;;5.25;1.35;;;;;;;;;;5005356;28;20050;-72
2023/08/26 05:54:09;;;;;;;14.70;2.05;;;;;;;;;;5004369;28;20029;-72
2023/08/26 05:56:34;;;;;;;7.97;1.50;;;;;;;;;;5005461;28;20080;-72
2023/08/26 05:59:00;;;;;;;4.87;1.43;;;;;;;;;;5008690;28;20272;-73
2023/08/26 06:01:25;;;;;;;6.93;1.97;;;;;;;;;;5013147;28;20653;-72
2023/08/26 06:03:50;;;;;;;6.00;1.55;;;;;;;;;;5013080;28;20260;-72
2023/08/26 06:06:15;;;;;;;11.18;1.92;;;;;;;;;;5012018;28;20474;-72
2023/08/26 06:08:40;;;;;;;7.87;2.07;;;;;;;;;;5012765;28;20017;-72
2023/08/26 06:11:06;;;;;;;5.67;1.40;;;;;;;;;;5010364;28;20633;-73
2023/08/26 06:13:31;;;;;;;3.17;1.27;;;;;;;;;;5012337;28;20261;-73
2023/08/26 06:15:56;;;;;;;2.70;1.27;;;;;;;;;;5012663;28;20253;-73
2023/08/26 06:18:23;;;;;;;6.43;0.90;;;;;;;;;;5006604;28;20276;-73
2023/08/26 06:20:49;;;;;;;4.30;1.35;;;;;;;;;;5009313;28;20107;-73
2023/08/26 06:23:14;;;;;;;9.13;1.48;;;;;;;;;;5000942;28;20089;-72
2023/08/26 06:25:49;;;;;;;7.50;1.10;;;;;;;;;;5007929;28;20442;-73
2023/08/26 06:28:14;;;;;;;8.27;1.73;;;;;;;;;;5011110;28;20470;-73
2023/08/26 06:30:39;;;;;;;5.13;1.57;;;;;;;;;;5012395;28;20105;-73
2023/08/26 06:33:04;;;;;;;6.00;1.87;;;;;;;;;;5005383;28;20299;-73
2023/08/26 06:35:29;;;;;;;4.78;1.35;;;;;;;;;;5007906;28;20021;-73
2023/08/26 06:37:55;;;;;;;5.83;1.27;;;;;;;;;;5011172;28;20037;-73
2023/08/26 06:40:20;;;;;;;5.82;1.30;;;;;;;;;;5012020;28;20261;-73
2023/08/26 06:42:45;;;;;;;4.90;1.30;;;;;;;;;;5012294;28;20037;-72
2023/08/26 06:45:10;;;;;;;8.97;1.23;;;;;;;;;;5012235;28;20308;-72
2023/08/26 06:47:35;;;;;;;5.37;1.27;;;;;;;;;;5011136;28;20777;-72
2023/08/26 06:50:00;;;;;;;9.93;2.30;;;;;;;;;;5011626;28;20268;-72
2023/08/26 06:52:27;;;;;;;3.60;1.30;;;;;;;;;;5011241;28;20261;-72
2023/08/26 06:54:52;;;;;;;2.15;1.13;;;;;;;;;;5011801;28;20273;-72
2023/08/26 06:57:18;;;;;;;4.95;0.95;;;;;;;;;;5011857;28;20112;-73
2023/08/26 06:59:43;;;;;;;4.23;1.40;;;;;;;;;;5011705;28;20647;-73
2023/08/26 07:02:09;;;;;;;5.20;1.63;;;;;;;;;;5010994;28;20272;-73
2023/08/26 07:04:34;;;;;;;3.42;0.95;;;;;;;;;;5011875;28;20029;-73
2023/08/26 07:06:59;;;;;;;1.97;1.17;;;;;;;;;;5006465;28;20017;-73
2023/08/26 07:09:25;;;;;;;2.83;0.80;;;;;;;;;;5006497;28;20293;-69
2023/08/26 07:11:50;;;;;;;9.77;1.70;;;;;;;;;;5011957;28;20021;-72
2023/08/26 07:14:15;;;;;;;3.17;1.10;;;;;;;;;;5012475;28;20018;-72
2023/08/26 07:16:40;;;;;;;3.70;1.33;;;;;;;;;;5010649;28;20375;-72
2023/08/26 07:19:08;;;;;;;2.47;0.77;;;;;;;;;;5011520;28;20113;-73
2023/08/26 07:21:33;;;;;;;4.43;1.10;;;;;;;;;;5011892;28;20029;-73
2023/08/26 07:23:58;;;;;;;5.23;1.17;;;;;;;;;;5010310;28;20014;-72
2023/08/26 07:26:24;;;;;;;3.13;1.07;;;;;;;;;;5011075;28;20112;-72
2023/08/26 07:28:49;;;;;;;2.90;0.77;;;;;;;;;;5011771;28;20021;-72
2023/08/26 07:31:14;;;;;;;1.73;0.70;;;;;;;;;;5010634;28;20018;-73
2023/08/26 07:33:39;;;;;;;3.40;0.80;;;;;;;;;;5011405;28;20053;-73
2023/08/26 07:36:05;;;;;;;2.70;0.77;;;;;;;;;;5010871;28;20026;-73
2023/08/26 07:38:30;;;;;;;7.72;1.10;;;;;;;;;;5011487;28;20092;-73
2023/08/26 07:40:56;;;;;;;3.17;0.65;;;;;;;;;;5011247;28;20026;-73
2023/08/26 07:43:21;;;;;;;3.20;0.75;;;;;;;;;;5011413;28;20121;-72
2023/08/26 07:45:46;;;;;;;5.53;1.13;;;;;;;;;;5010797;28;20053;-72
2023/08/26 07:48:12;;;;;;;4.57;1.03;;;;;;;;;;5010743;28;20347;-72
2023/08/26 07:50:38;;;;;;;5.50;1.00;;;;;;;;;;5011573;28;20087;-73
2023/08/26 07:53:05;;;;;;;3.55;0.90;;;;;;;;;;5010936;28;20093;-73
2023/08/26 07:55:30;;;;;;;1999.90;999.90;;;;;;;;;;5011401;28;20114;-73
2023/08/26 07:57:55;;;;;;;4.00;2.23;;;;;;;;;;5010959;28;20100;-73
2023/08/26 08:00:20;;;;;;;7.10;1.60;;;;;;;;;;4992120;28;20687;-73
2023/08/26 08:02:46;;;;;;;8.93;0.90;;;;;;;;;;5010140;28;20469;-73
2023/08/26 08:05:11;;;;;;;7.70;1.17;;;;;;;;;;5010104;28;20021;-74
2023/08/26 08:07:36;;;;;;;2.43;0.60;;;;;;;;;;5010765;28;20257;-73
2023/08/26 08:10:01;;;;;;;999.63;270.27;;;;;;;;;;5010747;28;20257;-73
2023/08/26 08:12:27;;;;;;;1999.90;999.90;;;;;;;;;;5007113;28;20327;-73
2023/08/26 08:14:52;;;;;;;5.30;1.23;;;;;;;;;;5003148;28;20037;-73
2023/08/26 08:17:18;;;;;;;1999.90;999.90;;;;;;;;;;5010724;28;20060;-73
2023/08/26 08:19:45;;;;;;;12.63;1.55;;;;;;;;;;5006754;28;20018;-72
2023/08/26 08:22:11;;;;;;;3.05;1.48;;;;;;;;;;5008913;28;20724;-72
2023/08/26 08:24:36;;;;;;;5.72;1.15;;;;;;;;;;5010841;28;20156;-72
2023/08/26 08:27:01;;;;;;;2.80;1.30;;;;;;;;;;5009424;28;20099;-73
2023/08/26 08:29:26;;;;;;;9.73;1.52;;;;;;;;;;5009325;28;20327;-73
2023/08/26 08:31:52;;;;;;;1999.90;999.90;;;;;;;;;;5010587;28;20022;-73
2023/08/26 08:34:17;;;;;;;1999.90;999.90;;;;;;;;;;5009953;28;20109;-73
2023/08/26 08:36:42;;;;;;;1999.90;999.90;;;;;;;;;;5012355;28;20025;-73
2023/08/26 08:39:07;;;;;;;1999.90;999.90;;;;;;;;;;5014640;28;20095;-73
2023/08/26 08:41:33;;;;;;;1999.90;999.90;;;;;;;;;;4997037;28;20618;-73
2023/08/26 08:44:00;;;;;;;1999.90;999.90;;;;;;;;;;5014228;28;20036;-73
2023/08/26 08:46:26;;;;;;;1999.90;999.90;;;;;;;;;;5014824;28;20045;-73
2023/08/26 08:48:52;;;;;;;1999.90;999.90;;;;;;;;;;5010703;28;20056;-73
2023/08/26 08:51:18;;;;;;;1999.90;999.90;;;;;;;;;;5006868;28;20026;-73
2023/08/26 08:53:45;;;;;;;1999.90;999.90;;;;;;;;;;5008311;28;20331;-73
2023/08/26 08:56:13;;;;;;;1999.90;999.90;;;;;;;;;;5002414;28;20022;-73
2023/08/26 08:58:39;;;;;;;1999.90;999.90;;;;;;;;;;5008142;28;20113;-73
2023/08/26 09:01:04;;;;;;;1999.90;999.90;;;;;;;;;;5006422;28;20117;-73
2023/08/26 09:03:29;;;;;;;1999.90;999.90;;;;;;;;;;5005921;28;20121;-73
2023/08/26 09:05:55;;;;;;;1999.90;999.90;;;;;;;;;;5010442;28;20164;-73
2023/08/26 09:08:22;;;;;;;1999.90;999.90;;;;;;;;;;5014435;28;20025;-73
2023/08/26 09:10:48;;;;;;;1999.90;999.90;;;;;;;;;;4996517;28;20018;-73
2023/08/26 09:13:13;;;;;;;1999.90;999.90;;;;;;;;;;5014297;28;20106;-73
2023/08/26 09:15:39;;;;;;;1999.90;999.90;;;;;;;;;;5009246;28;20276;-73
2023/08/26 09:18:08;;;;;;;1999.90;999.90;;;;;;;;;;5011756;28;20449;-73
2023/08/26 09:20:37;;;;;;;1999.90;999.90;;;;;;;;;;5013825;28;20030;-74
2023/08/26 09:23:03;;;;;;;1999.90;999.90;;;;;;;;;;5014179;28;20022;-73
2023/08/26 09:25:29;;;;;;;1999.90;999.90;;;;;;;;;;5014354;28;20029;-73
2023/08/26 09:27:55;;;;;;;1999.90;999.90;;;;;;;;;;4996186;28;20355;-73
2023/08/26 09:30:20;;;;;;;1999.90;999.90;;;;;;;;;;5013703;28;20021;-73
2023/08/26 09:32:48;;;;;;;1999.90;999.90;;;;;;;;;;5007938;28;20088;-73
2023/08/26 09:35:16;;;;;;;1999.90;999.90;;;;;;;;;;5013593;28;20107;-73
2023/08/26 09:37:42;;;;;;;4.07;0.70;;;;;;;;;;5013952;28;20018;-73
2023/08/26 09:40:11;;;;;;;2.53;0.60;;;;;;;;;;5013306;28;20109;-73
2023/08/26 09:42:37;;;;;;;3.90;0.65;;;;;;;;;;5013674;28;20024;-73
2023/08/26 09:45:05;;;;;;;5.97;0.90;;;;;;;;;;5012393;28;20513;-73
2023/08/26 09:47:34;;;;;;;3.10;0.80;;;;;;;;;;5005356;28;20030;-73
2023/08/26 09:49:59;;;;;;;3.70;0.50;;;;;;;;;;5008257;28;20017;-73
2023/08/26 09:52:24;;;;;;;1.27;0.55;;;;;;;;;;5009408;28;20026;-73
2023/08/26 09:54:51;;;;;;;3.10;0.80;;;;;;;;;;5001014;28;20042;-73
2023/08/26 09:57:16;;;;;;;1.45;0.68;;;;;;;;;;5008528;28;20072;-73
2023/08/26 09:59:42;;;;;;;1.38;0.65;;;;;;;;;;5011290;28;20026;-73
2023/08/26 10:02:16;;;;;;;1.33;0.57;;;;;;;;;;5012974;28;20025;-74
2023/08/26 10:04:43;;;;;;;2.53;0.70;;;;;;;;;;5012754;28;20276;-73
2023/08/26 10:07:08;;;;;;;2.17;0.70;;;;;;;;;;5009188;28;20042;-73
2023/08/26 10:09:37;;;;;;;2.50;0.65;;;;;;;;;;5003103;28;20033;-73
2023/08/26 10:12:04;;;;;;;1.80;0.70;;;;;;;;;;5009628;28;20114;-74
2023/08/26 10:14:31;;;;;;;3.33;0.55;;;;;;;;;;5009815;28;20148;-74
2023/08/26 10:16:59;;;;;;;5.93;0.70;;;;;;;;;;5003742;28;20112;-73
2023/08/26 10:19:25;;;;;;;1.48;0.60;;;;;;;;;;5011762;28;20549;-73
2023/08/26 10:21:51;;;;;;;2.30;0.73;;;;;;;;;;5011955;28;20028;-74
2023/08/26 10:24:16;;;;;;;2.53;0.75;;;;;;;;;;5009995;28;20336;-73
2023/08/26 10:26:42;;;;;;;2.78;0.70;;;;;;;;;;5011713;28;20076;-74
2023/08/26 10:29:07;;;;;;;2.10;0.68;;;;;;;;;;5012594;28;20022;-73
2023/08/26 10:31:36;;;;;;;2.78;0.50;;;;;;;;;;5012845;28;20024;-73
2023/08/26 10:34:12;;;;;;;1.60;0.50;;;;;;;;;;5012615;28;20018;-73
2023/08/26 10:36:38;;;;;;;1.52;0.50;;;;;;;;;;5010521;28;20014;-74
2023/08/26 10:39:04;;;;;;;2.03;0.75;;;;;;;;;;5007500;28;20021;-73
2023/08/26 10:41:29;;;;;;;4.53;1.00;;;;;;;;;;5010748;28;20109;-74
2023/08/26 10:43:56;;;;;;;1.13;0.68;;;;;;;;;;5012065;28;20018;-73
2023/08/26 10:46:30;;;;;;;4.80;0.50;;;;;;;;;;5011959;28;20017;-74
2023/08/26 10:48:59;;;;;;;3.25;0.45;;;;;;;;;;5011905;28;20072;-74
2023/08/26 10:51:25;;;;;;;1.77;0.70;;;;;;;;;;5011233;28;20072;-73
2023/08/26 10:53:50;;;;;;;1.25;0.52;;;;;;;;;;4992431;28;20026;-73
2023/08/26 10:56:18;;;;;;;4.18;0.90;;;;;;;;;;5011028;28;20028;-74
2023/08/26 10:58:47;;;;;;;2.10;0.50;;;;;;;;;;5011953;28;20516;-74
2023/08/26 11:01:12;;;;;;;3.35;0.73;;;;;;;;;;4993251;28;20033;-73
2023/08/26 11:03:38;;;;;;;2.80;0.60;;;;;;;;;;5012054;28;20026;-74
2023/08/26 11:06:04;;;;;;;0.28;0.15;;;;;;;;;;5010962;28;20049;-74
2023/08/26 11:08:30;;;;;;;3.58;0.50;;;;;;;;;;5008194;28;20383;-74
2023/08/26 11:10:55;;;;;;;1.45;0.32;;;;;;;;;;5010002;28;20014;-74
2023/08/26 11:13:21;;;;;;;2.57;0.50;;;;;;;;;;5011445;28;20069;-74
2023/08/26 11:15:48;;;;;;;3.45;0.43;;;;;;;;;;5011010;28;20014;-74
2023/08/26 11:18:13;;;;;;;3.20;0.50;;;;;;;;;;5008596;28;20034;-74
2023/08/26 11:20:39;;;;;;;2.20;0.50;;;;;;;;;;5006477;28;20088;-73
2023/08/26 11:23:05;;;;;;;4.77;0.70;;;;;;;;;;5008256;28;20042;-74
2023/08/26 11:25:30;;;;;;;2.95;0.40;;;;;;;;;;5009461;28;20356;-74
2023/08/26 11:28:22;;;;;;;1.27;0.40;;;;;;;;;;5011292;28;20032;-74
2023/08/26 11:30:48;;;;;;;2.88;0.40;;;;;;;;;;5008217;28;20038;-74
2023/08/26 11:33:17;;;;;;;3.53;0.55;;;;;;;;;;5010397;28;20018;-74
2023/08/26 11:35:46;;;;;;;1.77;0.50;;;;;;;;;;5011315;28;20021;-74
2023/08/26 11:38:12;;;;;;;1.02;0.45;;;;;;;;;;5010311;28;20033;-73
2023/08/26 11:40:38;;;;;;;1.42;0.50;;;;;;;;;;5011039;28;20040;-74
2023/08/26 11:43:09;;;;;;;4.43;0.73;;;;;;;;;;5011338;28;20026;-74
2023/08/26 11:45:36;;;;;;;1.67;0.47;;;;;;;;;;5010912;28;20033;-74
2023/08/26 11:48:01;;;;;;;0.70;0.40;;;;;;;;;;5003733;28;20026;-74
2023/08/26 11:50:27;;;;;;;1.25;0.57;;;;;;;;;;5010801;28;20018;-74
2023/08/26 11:52:53;;;;;;;2.13;0.50;;;;;;;;;;5006047;28;20018;-74
2023/08/26 11:55:18;;;;;;;2.55;0.55;;;;;;;;;;5005551;28;20034;-74
2023/08/26 11:57:44;;;;;;;1.38;0.50;;;;;;;;;;5010775;28;20022;-74
2023/08/26 12:00:10;;;;;;;2.22;0.50;;;;;;;;;;5010566;28;20009;-74
2023/08/26 12:02:36;;;;;;;2.92;1.65;;;;;;;;;;5011032;28;20013;-74
2023/08/26 12:05:02;;;;;;;4.43;2.10;;;;;;;;;;5009424;28;20105;-74
2023/08/26 12:07:29;;;;;;;3.35;0.90;;;;;;;;;;5007314;28;20014;-74
2023/08/26 12:09:54;;;;;;;1.73;1.10;;;;;;;;;;5008678;28;20014;-73
2023/08/26 12:12:20;;;;;;;3.45;0.60;;;;;;;;;;5010274;28;20379;-74
2023/08/26 12:14:46;;;;;;;3.22;0.47;;;;;;;;;;5010891;28;20037;-74
2023/08/26 12:17:11;;;;;;;5.60;1.35;;;;;;;;;;5010476;28;20157;-73
2023/08/26 12:19:36;;;;;;;2.03;1.10;;;;;;;;;;5009851;28;20018;-74
2023/08/26 12:22:01;;;;;;;4.43;0.67;;;;;;;;;;5009529;28;20315;-73
2023/08/26 12:24:27;;;;;;;4.03;0.90;;;;;;;;;;4992801;28;20741;-74
2023/08/26 12:26:52;;;;;;;1.17;0.57;;;;;;;;;;5010619;28;20024;-74
2023/08/26 12:29:18;;;;;;;3.00;0.80;;;;;;;;;;5010264;28;20037;-74
2023/08/26 12:31:43;;;;;;;1.77;0.67;;;;;;;;;;5010477;28;20037;-74
2023/08/26 12:34:11;;;;;;;3.28;0.50;;;;;;;;;;5009629;28;20090;-74
2023/08/26 12:36:36;;;;;;;3.97;0.80;;;;;;;;;;5009268;28;20033;-74
2023/08/26 12:39:02;;;;;;;3.10;1.13;;;;;;;;;;5010221;28;20021;-74
2023/08/26 12:41:27;;;;;;;0.98;0.50;;;;;;;;;;4992894;28;20065;-74
2023/08/26 12:43:55;;;;;;;4.87;0.90;;;;;;;;;;5010515;28;20029;-74
2023/08/26 12:46:20;;;;;;;1.38;0.65;;;;;;;;;;5010213;28;20833;-74
2023/08/26 12:48:45;;;;;;;1.90;0.70;;;;;;;;;;5008680;28;20118;-74
2023/08/26 12:51:10;;;;;;;2.65;0.85;;;;;;;;;;5006669;28;20018;-74
2023/08/26 12:53:36;;;;;;;1.42;0.55;;;;;;;;;;5009770;28;20057;-74
2023/08/26 12:56:01;;;;;;;2.40;0.67;;;;;;;;;;5010434;28;20010;-74
2023/08/26 12:58:26;;;;;;;2.75;0.98;;;;;;;;;;5008506;28;20494;-75
2023/08/26 13:00:51;;;;;;;1.38;0.57;;;;;;;;;;5010693;28;20025;-74
2023/08/26 13:03:17;;;;;;;12.10;1.20;;;;;;;;;;5010296;28;20028;-74
2023/08/26 13:05:43;;;;;;;6.43;0.65;;;;;;;;;;5009767;28;20265;-74
2023/08/26 13:08:08;;;;;;;5.40;1.80;;;;;;;;;;5009919;28;20026;-74
2023/08/26 13:10:33;;;;;;;7.33;2.50;;;;;;;;;;5009687;28;20475;-74
2023/08/26 13:12:58;;;;;;;5.07;2.70;;;;;;;;;;5007187;28;20016;-74
2023/08/26 13:15:25;;;;;;;7.43;2.60;;;;;;;;;;5010075;28;20387;-74
2023/08/26 13:17:51;;;;;;;4.57;2.13;;;;;;;;;;5010235;28;20089;-74
2023/08/26 13:20:17;;;;;;;4.22;1.42;;;;;;;;;;5007515;28;20452;-74
2023/08/26 13:22:42;;;;;;;2.08;0.60;;;;;;;;;;4992135;28;20018;-74
2023/08/26 13:25:08;;;;;;;7.43;1.00;;;;;;;;;;5013483;28;20521;-74
2023/08/26 13:27:33;;;;;;;5.97;0.80;;;;;;;;;;5010638;28;20272;-74
2023/08/26 13:29:58;;;;;;;0.70;0.50;;;;;;;;;;5007379;28;20025;-74
2023/08/26 13:32:23;;;;;;;2.93;0.90;;;;;;;;;;5013297;28;20018;-74
2023/08/26 13:34:49;;;;;;;3.63;0.88;;;;;;;;;;4996296;28;20273;-75
2023/08/26 13:37:14;;;;;;;4.40;1.10;;;;;;;;;;5013368;28;20026;-75
2023/08/26 13:39:39;;;;;;;4.33;0.87;;;;;;;;;;5011470;28;20129;-75
2023/08/26 13:42:04;;;;;;;1.37;0.57;;;;;;;;;;5012536;28;20546;-75
2023/08/26 13:44:29;;;;;;;2.53;0.50;;;;;;;;;;5010168;28;20289;-75
2023/08/26 13:46:55;;;;;;;2.77;0.67;;;;;;;;;;5013090;28;20526;-74
2023/08/26 13:49:20;;;;;;;3.05;0.75;;;;;;;;;;5012982;28;20029;-74
2023/08/26 13:51:45;;;;;;;1.10;0.60;;;;;;;;;;5005376;28;20029;-74
2023/08/26 13:54:10;;;;;;;3.30;0.73;;;;;;;;;;5004661;28;20484;-74
2023/08/26 13:56:38;;;;;;;1.77;0.60;;;;;;;;;;5008908;28;20161;-74
2023/08/26 13:59:03;;;;;;;2.08;0.82;;;;;;;;;;5005174;28;20274;-75
2023/08/26 14:01:29;;;;;;;3.90;0.90;;;;;;;;;;5009468;28;20026;-75
2023/08/26 14:03:54;;;;;;;3.42;0.90;;;;;;;;;;5010995;28;20014;-75
2023/08/26 14:06:19;;;;;;;1.48;0.55;;;;;;;;;;5009579;28;20030;-75
2023/08/26 14:08:44;;;;;;;1.30;0.50;;;;;;;;;;5006820;28;20088;-75
2023/08/26 14:11:09;;;;;;;1.83;0.50;;;;;;;;;;5012421;28;20288;-75
2023/08/26 14:13:35;;;;;;;6.07;0.67;;;;;;;;;;5008595;28;20024;-74
2023/08/26 14:16:00;;;;;;;1.20;0.60;;;;;;;;;;5012575;28;20336;-75
2023/08/26 14:18:25;;;;;;;1.20;0.73;;;;;;;;;;5006499;28;20276;-75
2023/08/26 14:20:50;;;;;;;1.93;0.73;;;;;;;;;;5007929;28;20018;-75
2023/08/26 14:23:15;;;;;;;1.87;0.90;;;;;;;;;;5005523;28;20471;-75
2023/08/26 14:25:42;;;;;;;2.70;0.70;;;;;;;;;;5011615;28;20025;-75